sensor_id;sensor_type;location;lat;lon;timestamp;P1;durP1;ratioP1;P2;durP2;ratioP2
44572;SDS011;31762;45.420;10.072;2022-07-09T00:04:34;1.30;;;0.30;;
44572;SDS011;31762;45.420;10.072;2022-07-09T00:09:36;0.32;;;0.20;;
44572;SDS011;31762;45.420;10.072;2022-07-09T00:14:38;2.38;;;0.25;;
44572;SDS011;31762;45.420;10.072;2022-07-09T00:19:39;2.30;;;0.70;;
44572;SDS011;31762;45.420;10.072;2022-07-09T00:24:41;0.70;;;0.30;;
44572;SDS011;31762;45.420;10.072;2022-07-09T00:29:43;0.98;;;0.65;;
44572;SDS011;31762;45.420;10.072;2022-07-09T00:34:45;0.88;;;0.30;;
44572;SDS011;31762;45.420;10.072;2022-07-09T00:39:46;0.80;;;0.50;;
44572;SDS011;31762;45.420;10.072;2022-07-09T00:44:48;1.75;;;0.60;;
44572;SDS011;31762;45.420;10.072;2022-07-09T00:49:50;1.40;;;0.87;;
44572;SDS011;31762;45.420;10.072;2022-07-09T00:54:52;2.30;;;1.15;;
44572;SDS011;31762;45.420;10.072;2022-07-09T00:59:57;1.05;;;0.60;;
44572;SDS011;31762;45.420;10.072;2022-07-09T01:04:59;1.48;;;0.75;;
44572;SDS011;31762;45.420;10.072;2022-07-09T01:10:01;1.03;;;0.60;;
44572;SDS011;31762;45.420;10.072;2022-07-09T01:15:04;1.15;;;0.63;;
44572;SDS011;31762;45.420;10.072;2022-07-09T01:20:07;1.33;;;0.60;;
44572;SDS011;31762;45.420;10.072;2022-07-09T01:25:09;0.90;;;0.40;;
44572;SDS011;31762;45.420;10.072;2022-07-09T01:30:24;0.75;;;0.35;;
44572;SDS011;31762;45.420;10.072;2022-07-09T01:35:26;1.70;;;0.50;;
44572;SDS011;31762;45.420;10.072;2022-07-09T01:40:28;1.47;;;0.70;;
44572;SDS011;31762;45.420;10.072;2022-07-09T01:45:30;2.22;;;0.65;;
44572;SDS011;31762;45.420;10.072;2022-07-09T01:50:32;0.57;;;0.52;;
44572;SDS011;31762;45.420;10.072;2022-07-09T01:55:33;0.77;;;0.50;;
44572;SDS011;31762;45.420;10.072;2022-07-09T02:00:35;0.82;;;0.45;;
44572;SDS011;31762;45.420;10.072;2022-07-09T02:05:37;1.80;;;0.50;;
44572;SDS011;31762;45.420;10.072;2022-07-09T02:10:39;0.80;;;0.43;;
44572;SDS011;31762;45.420;10.072;2022-07-09T02:15:40;1.15;;;0.80;;
44572;SDS011;31762;45.420;10.072;2022-07-09T02:20:42;1.13;;;0.98;;
44572;SDS011;31762;45.420;10.072;2022-07-09T02:25:44;1.10;;;0.70;;
44572;SDS011;31762;45.420;10.072;2022-07-09T02:30:46;1.90;;;1.20;;
44572;SDS011;31762;45.420;10.072;2022-07-09T02:35:48;3.30;;;0.95;;
44572;SDS011;31762;45.420;10.072;2022-07-09T02:40:49;3.30;;;0.63;;
44572;SDS011;31762;45.420;10.072;2022-07-09T02:45:51;0.97;;;0.60;;
44572;SDS011;31762;45.420;10.072;2022-07-09T02:50:53;1.90;;;0.90;;
44572;SDS011;31762;45.420;10.072;2022-07-09T02:55:55;2.58;;;0.90;;
44572;SDS011;31762;45.420;10.072;2022-07-09T03:00:57;1.08;;;0.65;;
44572;SDS011;31762;45.420;10.072;2022-07-09T03:05:58;1.80;;;0.60;;
44572;SDS011;31762;45.420;10.072;2022-07-09T03:11:00;2.65;;;0.90;;
44572;SDS011;31762;45.420;10.072;2022-07-09T03:16:02;1.63;;;1.00;;
44572;SDS011;31762;45.420;10.072;2022-07-09T03:21:05;2.17;;;0.70;;
44572;SDS011;31762;45.420;10.072;2022-07-09T03:26:07;2.22;;;0.45;;
44572;SDS011;31762;45.420;10.072;2022-07-09T03:31:09;1.50;;;0.60;;
44572;SDS011;31762;45.420;10.072;2022-07-09T03:36:11;0.70;;;0.40;;
44572;SDS011;31762;45.420;10.072;2022-07-09T03:41:12;1.52;;;0.52;;
44572;SDS011;31762;45.420;10.072;2022-07-09T03:46:14;1.02;;;0.70;;
44572;SDS011;31762;45.420;10.072;2022-07-09T03:51:16;1.88;;;0.85;;
44572;SDS011;31762;45.420;10.072;2022-07-09T03:56:18;2.65;;;0.80;;
44572;SDS011;31762;45.420;10.072;2022-07-09T04:01:19;2.90;;;0.80;;
44572;SDS011;31762;45.420;10.072;2022-07-09T04:06:21;1.70;;;1.20;;
44572;SDS011;31762;45.420;10.072;2022-07-09T04:11:23;1.92;;;1.15;;
44572;SDS011;31762;45.420;10.072;2022-07-09T04:16:25;2.08;;;1.15;;
44572;SDS011;31762;45.420;10.072;2022-07-09T04:21:27;2.65;;;1.42;;
44572;SDS011;31762;45.420;10.072;2022-07-09T04:26:28;2.07;;;1.17;;
44572;SDS011;31762;45.420;10.072;2022-07-09T04:31:30;2.17;;;0.80;;
44572;SDS011;31762;45.420;10.072;2022-07-09T04:36:32;1.55;;;1.10;;
44572;SDS011;31762;45.420;10.072;2022-07-09T04:41:34;1.85;;;1.00;;
44572;SDS011;31762;45.420;10.072;2022-07-09T04:46:36;5.20;;;1.08;;
44572;SDS011;31762;45.420;10.072;2022-07-09T04:51:37;2.55;;;1.15;;
44572;SDS011;31762;45.420;10.072;2022-07-09T04:56:39;1.57;;;1.00;;
44572;SDS011;31762;45.420;10.072;2022-07-09T05:01:41;3.78;;;1.40;;
44572;SDS011;31762;45.420;10.072;2022-07-09T05:06:43;4.55;;;1.42;;
44572;SDS011;31762;45.420;10.072;2022-07-09T05:11:44;1.77;;;1.27;;
44572;SDS011;31762;45.420;10.072;2022-07-09T05:16:46;2.90;;;1.23;;
44572;SDS011;31762;45.420;10.072;2022-07-09T05:21:48;3.50;;;1.48;;
44572;SDS011;31762;45.420;10.072;2022-07-09T05:26:50;2.15;;;1.40;;
44572;SDS011;31762;45.420;10.072;2022-07-09T05:31:52;2.07;;;1.30;;
44572;SDS011;31762;45.420;10.072;2022-07-09T05:36:54;2.83;;;1.20;;
44572;SDS011;31762;45.420;10.072;2022-07-09T05:41:56;1.95;;;1.33;;
44572;SDS011;31762;45.420;10.072;2022-07-09T05:46:58;3.30;;;1.20;;
44572;SDS011;31762;45.420;10.072;2022-07-09T05:51:59;1.60;;;0.82;;
44572;SDS011;31762;45.420;10.072;2022-07-09T05:57:01;1.40;;;0.90;;
44572;SDS011;31762;45.420;10.072;2022-07-09T06:02:03;1.48;;;0.75;;
44572;SDS011;31762;45.420;10.072;2022-07-09T06:07:05;1.67;;;0.65;;
44572;SDS011;31762;45.420;10.072;2022-07-09T06:12:07;1.08;;;0.70;;
44572;SDS011;31762;45.420;10.072;2022-07-09T06:17:09;1.42;;;0.80;;
44572;SDS011;31762;45.420;10.072;2022-07-09T06:22:11;1.67;;;0.80;;
44572;SDS011;31762;45.420;10.072;2022-07-09T06:27:13;1.67;;;0.82;;
44572;SDS011;31762;45.420;10.072;2022-07-09T06:32:15;2.53;;;0.73;;
44572;SDS011;31762;45.420;10.072;2022-07-09T06:37:16;1.77;;;0.40;;
44572;SDS011;31762;45.420;10.072;2022-07-09T06:42:18;1.40;;;0.60;;
44572;SDS011;31762;45.420;10.072;2022-07-09T06:47:20;1.23;;;0.50;;
44572;SDS011;31762;45.420;10.072;2022-07-09T06:52:22;0.70;;;0.33;;
44572;SDS011;31762;45.420;10.072;2022-07-09T06:57:24;0.65;;;0.30;;
44572;SDS011;31762;45.420;10.072;2022-07-09T07:02:26;1.30;;;0.20;;
44572;SDS011;31762;45.420;10.072;2022-07-09T07:07:27;0.40;;;0.30;;
44572;SDS011;31762;45.420;10.072;2022-07-09T07:12:29;0.65;;;0.20;;
44572;SDS011;31762;45.420;10.072;2022-07-09T07:17:31;2.28;;;1.10;;
44572;SDS011;31762;45.420;10.072;2022-07-09T07:22:32;1.52;;;0.40;;
44572;SDS011;31762;45.420;10.072;2022-07-09T07:27:34;0.90;;;0.35;;
44572;SDS011;31762;45.420;10.072;2022-07-09T07:32:36;0.40;;;0.20;;
44572;SDS011;31762;45.420;10.072;2022-07-09T07:37:38;0.45;;;0.20;;
44572;SDS011;31762;45.420;10.072;2022-07-09T07:42:39;0.90;;;0.30;;
44572;SDS011;31762;45.420;10.072;2022-07-09T07:47:41;0.40;;;0.23;;
44572;SDS011;31762;45.420;10.072;2022-07-09T07:52:43;0.40;;;0.23;;
44572;SDS011;31762;45.420;10.072;2022-07-09T07:57:48;1.75;;;0.28;;
44572;SDS011;31762;45.420;10.072;2022-07-09T08:02:49;1.43;;;0.33;;
44572;SDS011;31762;45.420;10.072;2022-07-09T08:07:51;1.40;;;0.40;;
44572;SDS011;31762;45.420;10.072;2022-07-09T08:12:53;0.80;;;0.30;;
44572;SDS011;31762;45.420;10.072;2022-07-09T08:17:55;0.50;;;0.30;;
44572;SDS011;31762;45.420;10.072;2022-07-09T08:22:57;0.77;;;0.70;;
44572;SDS011;31762;45.420;10.072;2022-07-09T08:27:59;0.85;;;0.40;;
44572;SDS011;31762;45.420;10.072;2022-07-09T08:33:01;1.80;;;0.50;;
44572;SDS011;31762;45.420;10.072;2022-07-09T08:38:03;1.65;;;0.57;;
44572;SDS011;31762;45.420;10.072;2022-07-09T08:43:04;1.52;;;0.30;;
44572;SDS011;31762;45.420;10.072;2022-07-09T08:48:07;0.47;;;0.30;;
44572;SDS011;31762;45.420;10.072;2022-07-09T08:53:09;0.70;;;0.30;;
44572;SDS011;31762;45.420;10.072;2022-07-09T08:58:13;1.17;;;0.38;;
44572;SDS011;31762;45.420;10.072;2022-07-09T09:03:18;0.90;;;0.30;;
44572;SDS011;31762;45.420;10.072;2022-07-09T09:08:20;4.25;;;0.40;;
44572;SDS011;31762;45.420;10.072;2022-07-09T09:13:22;0.68;;;0.30;;
44572;SDS011;31762;45.420;10.072;2022-07-09T09:18:24;0.63;;;0.30;;
44572;SDS011;31762;45.420;10.072;2022-07-09T09:23:26;0.77;;;0.33;;
44572;SDS011;31762;45.420;10.072;2022-07-09T09:28:28;0.60;;;0.30;;
44572;SDS011;31762;45.420;10.072;2022-07-09T09:33:29;0.40;;;0.28;;
44572;SDS011;31762;45.420;10.072;2022-07-09T09:38:31;0.80;;;0.30;;
44572;SDS011;31762;45.420;10.072;2022-07-09T09:43:33;0.60;;;0.32;;
44572;SDS011;31762;45.420;10.072;2022-07-09T09:48:37;0.90;;;0.23;;
44572;SDS011;31762;45.420;10.072;2022-07-09T09:53:40;1.88;;;0.30;;
44572;SDS011;31762;45.420;10.072;2022-07-09T09:58:43;2.47;;;0.52;;
44572;SDS011;31762;45.420;10.072;2022-07-09T10:03:45;0.90;;;0.32;;
44572;SDS011;31762;45.420;10.072;2022-07-09T10:08:48;1.00;;;0.47;;
44572;SDS011;31762;45.420;10.072;2022-07-09T10:13:53;0.63;;;0.30;;
44572;SDS011;31762;45.420;10.072;2022-07-09T10:18:57;0.50;;;0.30;;
44572;SDS011;31762;45.420;10.072;2022-07-09T10:23:58;1.58;;;0.50;;
44572;SDS011;31762;45.420;10.072;2022-07-09T10:29:00;1.33;;;0.40;;
44572;SDS011;31762;45.420;10.072;2022-07-09T10:34:06;1.20;;;0.60;;
44572;SDS011;31762;45.420;10.072;2022-07-09T10:39:11;1.20;;;0.60;;
44572;SDS011;31762;45.420;10.072;2022-07-09T10:44:23;0.73;;;0.20;;
44572;SDS011;31762;45.420;10.072;2022-07-09T10:49:28;0.75;;;0.20;;
44572;SDS011;31762;45.420;10.072;2022-07-09T10:54:30;0.30;;;0.20;;
44572;SDS011;31762;45.420;10.072;2022-07-09T10:59:33;0.82;;;0.17;;
44572;SDS011;31762;45.420;10.072;2022-07-09T11:04:34;0.95;;;0.40;;
44572;SDS011;31762;45.420;10.072;2022-07-09T11:09:36;1.20;;;0.40;;
44572;SDS011;31762;45.420;10.072;2022-07-09T11:14:45;0.60;;;0.30;;
44572;SDS011;31762;45.420;10.072;2022-07-09T11:19:48;0.40;;;0.27;;
44572;SDS011;31762;45.420;10.072;2022-07-09T11:24:49;1.48;;;0.20;;
44572;SDS011;31762;45.420;10.072;2022-07-09T11:29:51;1.40;;;0.17;;
44572;SDS011;31762;45.420;10.072;2022-07-09T11:34:53;1.98;;;0.75;;
44572;SDS011;31762;45.420;10.072;2022-07-09T11:39:55;0.93;;;0.20;;
44572;SDS011;31762;45.420;10.072;2022-07-09T11:44:57;0.57;;;0.20;;
44572;SDS011;31762;45.420;10.072;2022-07-09T11:50:04;0.35;;;0.20;;
44572;SDS011;31762;45.420;10.072;2022-07-09T11:55:11;1.77;;;0.40;;
44572;SDS011;31762;45.420;10.072;2022-07-09T12:00:22;0.43;;;0.30;;
44572;SDS011;31762;45.420;10.072;2022-07-09T12:05:31;0.80;;;0.10;;
44572;SDS011;31762;45.420;10.072;2022-07-09T12:10:37;1.97;;;0.40;;
44572;SDS011;31762;45.420;10.072;2022-07-09T12:15:40;1.90;;;0.50;;
44572;SDS011;31762;45.420;10.072;2022-07-09T12:20:41;1.88;;;0.30;;
44572;SDS011;31762;45.420;10.072;2022-07-09T12:25:43;0.90;;;0.20;;
44572;SDS011;31762;45.420;10.072;2022-07-09T12:30:45;1.00;;;0.20;;
44572;SDS011;31762;45.420;10.072;2022-07-09T12:35:47;0.52;;;0.20;;
44572;SDS011;31762;45.420;10.072;2022-07-09T12:40:49;1.73;;;0.30;;
44572;SDS011;31762;45.420;10.072;2022-07-09T12:45:51;0.90;;;0.40;;
44572;SDS011;31762;45.420;10.072;2022-07-09T12:50:52;1.13;;;0.47;;
44572;SDS011;31762;45.420;10.072;2022-07-09T12:56:01;1.80;;;0.40;;
44572;SDS011;31762;45.420;10.072;2022-07-09T13:01:04;0.73;;;0.20;;
44572;SDS011;31762;45.420;10.072;2022-07-09T13:06:05;2.30;;;0.30;;
44572;SDS011;31762;45.420;10.072;2022-07-09T13:11:07;0.47;;;0.20;;
44572;SDS011;31762;45.420;10.072;2022-07-09T13:16:09;0.50;;;0.20;;
44572;SDS011;31762;45.420;10.072;2022-07-09T13:21:11;0.30;;;0.20;;
44572;SDS011;31762;45.420;10.072;2022-07-09T13:26:13;2.00;;;0.50;;
44572;SDS011;31762;45.420;10.072;2022-07-09T13:31:15;0.68;;;0.30;;
44572;SDS011;31762;45.420;10.072;2022-07-09T13:36:17;1.02;;;0.35;;
44572;SDS011;31762;45.420;10.072;2022-07-09T13:41:19;1.75;;;0.30;;
44572;SDS011;31762;45.420;10.072;2022-07-09T13:46:21;1.67;;;0.40;;
44572;SDS011;31762;45.420;10.072;2022-07-09T13:51:23;1.58;;;0.40;;
44572;SDS011;31762;45.420;10.072;2022-07-09T13:56:25;0.50;;;0.30;;
44572;SDS011;31762;45.420;10.072;2022-07-09T14:01:26;0.85;;;0.40;;
44572;SDS011;31762;45.420;10.072;2022-07-09T14:06:28;0.40;;;0.27;;
44572;SDS011;31762;45.420;10.072;2022-07-09T14:11:48;1.58;;;0.60;;
44572;SDS011;31762;45.420;10.072;2022-07-09T14:16:50;0.80;;;0.37;;
44572;SDS011;31762;45.420;10.072;2022-07-09T14:21:52;0.70;;;0.40;;
44572;SDS011;31762;45.420;10.072;2022-07-09T14:26:54;1.35;;;0.30;;
44572;SDS011;31762;45.420;10.072;2022-07-09T14:31:56;1.08;;;0.17;;
44572;SDS011;31762;45.420;10.072;2022-07-09T14:36:57;0.43;;;0.20;;
44572;SDS011;31762;45.420;10.072;2022-07-09T14:41:59;0.98;;;0.80;;
44572;SDS011;31762;45.420;10.072;2022-07-09T14:47:01;0.50;;;0.13;;
44572;SDS011;31762;45.420;10.072;2022-07-09T14:52:03;1.15;;;0.50;;
44572;SDS011;31762;45.420;10.072;2022-07-09T14:57:05;0.67;;;0.30;;
44572;SDS011;31762;45.420;10.072;2022-07-09T15:02:07;0.50;;;0.30;;
44572;SDS011;31762;45.420;10.072;2022-07-09T15:07:09;0.70;;;0.40;;
44572;SDS011;31762;45.420;10.072;2022-07-09T15:12:11;2.88;;;0.38;;
44572;SDS011;31762;45.420;10.072;2022-07-09T15:17:13;0.60;;;0.30;;
44572;SDS011;31762;45.420;10.072;2022-07-09T15:22:17;0.50;;;0.38;;
44572;SDS011;31762;45.420;10.072;2022-07-09T15:27:19;1.65;;;0.60;;
44572;SDS011;31762;45.420;10.072;2022-07-09T15:32:21;1.70;;;0.50;;
44572;SDS011;31762;45.420;10.072;2022-07-09T15:37:22;1.80;;;0.30;;
44572;SDS011;31762;45.420;10.072;2022-07-09T15:42:24;1.03;;;0.27;;
44572;SDS011;31762;45.420;10.072;2022-07-09T15:47:26;1.40;;;0.40;;
44572;SDS011;31762;45.420;10.072;2022-07-09T15:52:28;0.80;;;0.40;;
44572;SDS011;31762;45.420;10.072;2022-07-09T15:57:30;1.05;;;0.35;;
44572;SDS011;31762;45.420;10.072;2022-07-09T16:02:31;1.00;;;0.30;;
44572;SDS011;31762;45.420;10.072;2022-07-09T16:07:34;1.38;;;0.30;;
44572;SDS011;31762;45.420;10.072;2022-07-09T16:12:36;0.90;;;0.30;;
44572;SDS011;31762;45.420;10.072;2022-07-09T16:17:37;1.90;;;0.38;;
44572;SDS011;31762;45.420;10.072;2022-07-09T16:22:45;2.13;;;0.33;;
44572;SDS011;31762;45.420;10.072;2022-07-09T16:27:47;0.40;;;0.30;;
44572;SDS011;31762;45.420;10.072;2022-07-09T16:32:49;1.88;;;0.40;;
44572;SDS011;31762;45.420;10.072;2022-07-09T16:37:51;0.90;;;0.40;;
44572;SDS011;31762;45.420;10.072;2022-07-09T16:42:52;1.30;;;0.30;;
44572;SDS011;31762;45.420;10.072;2022-07-09T16:47:54;0.68;;;0.50;;
44572;SDS011;31762;45.420;10.072;2022-07-09T16:53:01;3.30;;;0.80;;
44572;SDS011;31762;45.420;10.072;2022-07-09T16:58:03;1.02;;;0.60;;
44572;SDS011;31762;45.420;10.072;2022-07-09T17:03:05;0.85;;;0.45;;
44572;SDS011;31762;45.420;10.072;2022-07-09T17:08:07;1.80;;;0.50;;
44572;SDS011;31762;45.420;10.072;2022-07-09T17:13:08;3.00;;;0.50;;
44572;SDS011;31762;45.420;10.072;2022-07-09T17:18:10;0.60;;;0.30;;
44572;SDS011;31762;45.420;10.072;2022-07-09T17:23:12;1.15;;;0.40;;
44572;SDS011;31762;45.420;10.072;2022-07-09T17:28:14;0.50;;;0.20;;
44572;SDS011;31762;45.420;10.072;2022-07-09T17:33:18;0.63;;;0.30;;
44572;SDS011;31762;45.420;10.072;2022-07-09T17:38:19;1.58;;;0.25;;
44572;SDS011;31762;45.420;10.072;2022-07-09T17:43:21;1.73;;;0.37;;
44572;SDS011;31762;45.420;10.072;2022-07-09T17:48:23;0.70;;;0.37;;
44572;SDS011;31762;45.420;10.072;2022-07-09T17:53:25;1.65;;;0.30;;
44572;SDS011;31762;45.420;10.072;2022-07-09T17:58:27;2.13;;;0.50;;
44572;SDS011;31762;45.420;10.072;2022-07-09T18:03:29;3.20;;;0.50;;
44572;SDS011;31762;45.420;10.072;2022-07-09T18:08:30;1.30;;;0.40;;
44572;SDS011;31762;45.420;10.072;2022-07-09T18:13:32;1.08;;;0.40;;
44572;SDS011;31762;45.420;10.072;2022-07-09T18:18:34;1.02;;;0.50;;
44572;SDS011;31762;45.420;10.072;2022-07-09T18:23:36;2.37;;;0.40;;
44572;SDS011;31762;45.420;10.072;2022-07-09T18:28:38;1.77;;;0.73;;
44572;SDS011;31762;45.420;10.072;2022-07-09T18:33:41;1.70;;;0.30;;
44572;SDS011;31762;45.420;10.072;2022-07-09T18:38:43;1.10;;;0.50;;
44572;SDS011;31762;45.420;10.072;2022-07-09T18:43:44;3.63;;;1.00;;
44572;SDS011;31762;45.420;10.072;2022-07-09T18:48:46;1.35;;;0.60;;
44572;SDS011;31762;45.420;10.072;2022-07-09T18:53:48;2.05;;;0.50;;
44572;SDS011;31762;45.420;10.072;2022-07-09T18:58:50;1.70;;;0.70;;
44572;SDS011;31762;45.420;10.072;2022-07-09T19:03:51;1.55;;;0.70;;
44572;SDS011;31762;45.420;10.072;2022-07-09T19:08:53;2.60;;;0.75;;
44572;SDS011;31762;45.420;10.072;2022-07-09T19:13:55;1.13;;;0.50;;
44572;SDS011;31762;45.420;10.072;2022-07-09T19:18:57;1.10;;;0.70;;
44572;SDS011;31762;45.420;10.072;2022-07-09T19:23:58;3.37;;;0.77;;
44572;SDS011;31762;45.420;10.072;2022-07-09T19:29:00;2.50;;;0.80;;
44572;SDS011;31762;45.420;10.072;2022-07-09T19:34:02;2.90;;;0.60;;
44572;SDS011;31762;45.420;10.072;2022-07-09T19:39:04;3.15;;;1.10;;
44572;SDS011;31762;45.420;10.072;2022-07-09T19:44:06;1.63;;;1.08;;
44572;SDS011;31762;45.420;10.072;2022-07-09T19:49:08;4.40;;;1.20;;
44572;SDS011;31762;45.420;10.072;2022-07-09T19:54:11;0.95;;;0.65;;
44572;SDS011;31762;45.420;10.072;2022-07-09T19:59:12;2.53;;;0.73;;
44572;SDS011;31762;45.420;10.072;2022-07-09T20:04:14;1.60;;;0.90;;
44572;SDS011;31762;45.420;10.072;2022-07-09T20:09:16;1.92;;;0.68;;
44572;SDS011;31762;45.420;10.072;2022-07-09T20:14:18;1.90;;;0.70;;
44572;SDS011;31762;45.420;10.072;2022-07-09T20:19:20;2.10;;;0.88;;
44572;SDS011;31762;45.420;10.072;2022-07-09T20:24:21;2.60;;;0.80;;
44572;SDS011;31762;45.420;10.072;2022-07-09T20:29:23;3.72;;;1.67;;
44572;SDS011;31762;45.420;10.072;2022-07-09T20:34:25;2.53;;;0.95;;
44572;SDS011;31762;45.420;10.072;2022-07-09T20:39:27;2.40;;;1.47;;
44572;SDS011;31762;45.420;10.072;2022-07-09T20:44:29;2.40;;;0.93;;
44572;SDS011;31762;45.420;10.072;2022-07-09T20:49:31;3.30;;;0.93;;
44572;SDS011;31762;45.420;10.072;2022-07-09T20:54:33;2.97;;;1.00;;
44572;SDS011;31762;45.420;10.072;2022-07-09T20:59:34;2.40;;;0.98;;
44572;SDS011;31762;45.420;10.072;2022-07-09T21:04:36;2.67;;;1.05;;
44572;SDS011;31762;45.420;10.072;2022-07-09T21:09:38;1.73;;;0.90;;
44572;SDS011;31762;45.420;10.072;2022-07-09T21:14:40;2.30;;;1.20;;
44572;SDS011;31762;45.420;10.072;2022-07-09T21:19:42;1.35;;;0.82;;
44572;SDS011;31762;45.420;10.072;2022-07-09T21:24:43;5.47;;;3.70;;
44572;SDS011;31762;45.420;10.072;2022-07-09T21:29:45;3.38;;;1.27;;
44572;SDS011;31762;45.420;10.072;2022-07-09T21:34:47;2.05;;;1.10;;
44572;SDS011;31762;45.420;10.072;2022-07-09T21:39:48;2.40;;;1.27;;
44572;SDS011;31762;45.420;10.072;2022-07-09T21:44:50;3.77;;;1.20;;
44572;SDS011;31762;45.420;10.072;2022-07-09T21:49:52;2.22;;;1.30;;
44572;SDS011;31762;45.420;10.072;2022-07-09T21:54:54;4.18;;;2.22;;
44572;SDS011;31762;45.420;10.072;2022-07-09T21:59:55;2.33;;;1.57;;
44572;SDS011;31762;45.420;10.072;2022-07-09T22:04:57;2.63;;;1.50;;
44572;SDS011;31762;45.420;10.072;2022-07-09T22:09:59;4.97;;;1.48;;
44572;SDS011;31762;45.420;10.072;2022-07-09T22:15:01;3.50;;;1.50;;
44572;SDS011;31762;45.420;10.072;2022-07-09T22:20:03;2.20;;;0.93;;
44572;SDS011;31762;45.420;10.072;2022-07-09T22:25:06;1.85;;;1.10;;
44572;SDS011;31762;45.420;10.072;2022-07-09T22:30:12;1.33;;;1.07;;
44572;SDS011;31762;45.420;10.072;2022-07-09T22:35:15;3.25;;;1.00;;
44572;SDS011;31762;45.420;10.072;2022-07-09T22:40:17;3.05;;;1.30;;
44572;SDS011;31762;45.420;10.072;2022-07-09T22:45:19;2.13;;;0.90;;
44572;SDS011;31762;45.420;10.072;2022-07-09T22:50:21;1.67;;;0.80;;
44572;SDS011;31762;45.420;10.072;2022-07-09T22:55:23;2.38;;;1.00;;
44572;SDS011;31762;45.420;10.072;2022-07-09T23:00:24;1.77;;;1.00;;
44572;SDS011;31762;45.420;10.072;2022-07-09T23:05:26;1.87;;;1.13;;
44572;SDS011;31762;45.420;10.072;2022-07-09T23:10:28;2.67;;;1.10;;
44572;SDS011;31762;45.420;10.072;2022-07-09T23:15:30;1.35;;;1.15;;
44572;SDS011;31762;45.420;10.072;2022-07-09T23:20:32;2.53;;;1.33;;
44572;SDS011;31762;45.420;10.072;2022-07-09T23:25:33;4.40;;;1.23;;
44572;SDS011;31762;45.420;10.072;2022-07-09T23:30:35;2.57;;;1.20;;
44572;SDS011;31762;45.420;10.072;2022-07-09T23:35:37;1.92;;;0.98;;
44572;SDS011;31762;45.420;10.072;2022-07-09T23:40:39;2.45;;;1.10;;
44572;SDS011;31762;45.420;10.072;2022-07-09T23:45:41;2.10;;;1.17;;
44572;SDS011;31762;45.420;10.072;2022-07-09T23:50:42;2.90;;;1.10;;
44572;SDS011;31762;45.420;10.072;2022-07-09T23:55:44;1.67;;;1.00;;
